createdAt,value
2019-05-19T00:02:03.192Z,10.30
2019-05-19T00:04:31.461Z,10.53
2019-05-19T00:06:59.724Z,10.00
2019-05-19T00:09:27.977Z,9.98
2019-05-19T00:11:56.235Z,10.90
2019-05-19T00:14:24.487Z,10.85
2019-05-19T00:16:52.757Z,11.43
2019-05-19T00:19:26.757Z,11.50
2019-05-19T00:21:51.013Z,11.57
2019-05-19T00:24:19.270Z,11.43
2019-05-19T00:26:47.533Z,11.40
2019-05-19T00:29:15.785Z,11.15
2019-05-19T00:31:44.082Z,12.35
2019-05-19T00:34:12.375Z,11.57
2019-05-19T00:36:40.641Z,12.13
2019-05-19T00:39:08.903Z,11.95
2019-05-19T00:41:37.173Z,11.38
2019-05-19T00:44:05.424Z,11.48
2019-05-19T00:46:33.689Z,11.95
2019-05-19T00:49:01.953Z,11.40
2019-05-19T00:51:30.210Z,11.48
2019-05-19T00:53:58.469Z,12.53
2019-05-19T00:56:26.737Z,12.75
2019-05-19T00:58:54.980Z,11.83
2019-05-19T01:01:23.274Z,12.23
2019-05-19T01:03:51.573Z,12.15
2019-05-19T01:06:19.840Z,11.70
2019-05-19T01:08:48.083Z,12.85
2019-05-19T01:11:16.348Z,12.40
2019-05-19T01:13:44.592Z,12.20
2019-05-19T01:16:12.929Z,12.73
2019-05-19T01:18:41.181Z,13.10
2019-05-19T01:21:09.448Z,13.25
2019-05-19T01:23:37.702Z,12.20
2019-05-19T01:26:05.962Z,13.25
2019-05-19T01:28:34.216Z,13.13
2019-05-19T01:31:02.481Z,13.68
2019-05-19T01:33:31.127Z,13.08
2019-05-19T01:35:59.394Z,12.93
2019-05-19T01:38:27.645Z,14.13
2019-05-19T01:40:55.917Z,12.78
2019-05-19T01:43:24.168Z,13.35
2019-05-19T01:45:52.440Z,12.47
2019-05-19T01:48:20.692Z,14.65
2019-05-19T01:50:48.957Z,12.82
2019-05-19T01:53:17.209Z,12.55
2019-05-19T01:55:45.473Z,12.60
2019-05-19T01:58:13.729Z,13.28
2019-05-19T02:00:41.992Z,11.68
2019-05-19T02:03:10.245Z,12.35
2019-05-19T02:05:38.509Z,13.25
2019-05-19T02:08:06.767Z,13.90
2019-05-19T02:10:35.017Z,12.37
2019-05-19T02:13:05.138Z,14.30
2019-05-19T02:15:33.273Z,12.90
2019-05-19T02:18:01.541Z,13.53
2019-05-19T02:20:33.092Z,13.80
2019-05-19T02:22:59.788Z,12.60
2019-05-19T02:25:28.036Z,13.88
2019-05-19T02:27:56.335Z,13.38
2019-05-19T02:30:24.572Z,13.05
2019-05-19T02:32:52.847Z,13.03
2019-05-19T02:35:21.089Z,13.50
2019-05-19T02:37:49.350Z,12.15
2019-05-19T02:40:17.596Z,12.50
2019-05-19T02:42:45.862Z,12.30
2019-05-19T02:45:15.581Z,12.13
2019-05-19T02:47:43.841Z,12.88
2019-05-19T02:50:12.120Z,12.75
2019-05-19T02:52:41.068Z,14.13
2019-05-19T02:55:09.389Z,13.10
2019-05-19T02:57:37.743Z,13.68
2019-05-19T03:00:08.109Z,13.45
2019-05-19T03:02:36.379Z,13.05
2019-05-19T03:05:05.699Z,13.30
2019-05-19T03:07:33.966Z,14.00
2019-05-19T03:10:02.232Z,13.88
2019-05-19T03:12:30.563Z,14.85
2019-05-19T03:14:58.814Z,13.55
2019-05-19T03:17:27.081Z,15.08
2019-05-19T03:19:55.402Z,15.18
2019-05-19T03:22:23.653Z,15.88
2019-05-19T03:24:51.907Z,17.02
2019-05-19T03:27:20.162Z,16.25
2019-05-19T03:29:53.008Z,15.68
2019-05-19T03:32:38.151Z,15.50
2019-05-19T03:35:06.467Z,15.53
2019-05-19T03:37:34.815Z,15.65
2019-05-19T03:40:04.794Z,15.28
2019-05-19T03:42:33.067Z,16.15
2019-05-19T03:45:01.384Z,16.37
2019-05-19T03:47:29.665Z,15.68
2019-05-19T03:49:57.915Z,16.60
2019-05-19T03:52:26.178Z,15.30
2019-05-19T03:54:54.435Z,17.52
2019-05-19T03:57:22.697Z,17.98
2019-05-19T03:59:50.948Z,17.87
2019-05-19T04:02:19.202Z,18.95
2019-05-19T04:04:47.449Z,18.90
2019-05-19T04:07:15.718Z,20.17
2019-05-19T04:09:43.976Z,18.55
2019-05-19T04:12:12.238Z,17.82
2019-05-19T04:14:40.489Z,16.50
2019-05-19T04:17:08.753Z,17.15
2019-05-19T04:19:37.004Z,17.95
2019-05-19T04:22:05.329Z,18.82
2019-05-19T04:24:34.062Z,18.15
2019-05-19T04:27:02.318Z,17.27
2019-05-19T04:29:30.598Z,15.55
2019-05-19T04:31:58.904Z,15.58
2019-05-19T04:34:27.174Z,16.40
2019-05-19T04:36:55.421Z,15.43
2019-05-19T04:39:23.677Z,15.88
2019-05-19T04:41:51.932Z,15.48
2019-05-19T04:44:20.230Z,15.18
2019-05-19T04:46:48.481Z,15.18
2019-05-19T04:49:16.754Z,16.02
2019-05-19T04:51:45.009Z,14.87
2019-05-19T04:54:13.269Z,14.00
2019-05-19T04:56:41.529Z,13.53
2019-05-19T04:59:09.798Z,13.28
2019-05-19T05:01:38.054Z,12.58
2019-05-19T05:04:06.317Z,13.55
2019-05-19T05:06:34.576Z,12.33
2019-05-19T05:09:03.218Z,12.25
2019-05-19T05:11:31.465Z,11.33
2019-05-19T05:13:59.733Z,10.98
2019-05-19T05:16:27.990Z,11.40
2019-05-19T05:18:56.259Z,11.10
2019-05-19T05:21:24.509Z,11.22
2019-05-19T05:23:52.772Z,10.75
2019-05-19T05:26:21.026Z,10.23
2019-05-19T05:28:49.290Z,10.53
2019-05-19T05:31:17.538Z,9.98
2019-05-19T05:33:45.792Z,10.05
2019-05-19T05:36:14.037Z,8.88
2019-05-19T05:38:42.288Z,9.60
2019-05-19T05:41:10.545Z,9.18
2019-05-19T05:43:38.797Z,9.13
2019-05-19T05:46:07.037Z,8.73
2019-05-19T05:48:35.292Z,8.63
2019-05-19T05:51:03.538Z,8.45
2019-05-19T05:53:31.801Z,8.33
2019-05-19T05:56:00.051Z,8.23
2019-05-19T05:58:28.319Z,7.85
2019-05-19T06:00:56.561Z,7.55
2019-05-19T06:03:24.808Z,7.60
2019-05-19T06:05:53.061Z,7.75
2019-05-19T06:08:21.321Z,7.80
2019-05-19T06:10:49.568Z,7.78
2019-05-19T06:13:17.817Z,7.92
2019-05-19T06:15:46.062Z,8.28
2019-05-19T06:18:14.325Z,8.45
2019-05-19T06:20:42.568Z,7.67
2019-05-19T06:23:10.816Z,8.43
2019-05-19T06:25:39.080Z,8.23
2019-05-19T06:28:07.317Z,7.70
2019-05-19T06:30:35.564Z,7.58
2019-05-19T06:33:04.599Z,7.05
2019-05-19T06:35:32.866Z,7.00
2019-05-19T06:38:01.100Z,7.10
2019-05-19T06:40:29.360Z,8.40
2019-05-19T06:42:57.648Z,7.97
2019-05-19T06:45:25.923Z,7.45
2019-05-19T06:47:54.267Z,7.60
2019-05-19T06:50:22.561Z,8.08
2019-05-19T06:52:50.803Z,7.78
2019-05-19T06:55:19.068Z,7.60
2019-05-19T06:57:47.372Z,7.30
2019-05-19T07:00:15.648Z,6.97
2019-05-19T07:02:43.952Z,7.22
2019-05-19T07:05:12.276Z,8.00
2019-05-19T07:07:41.213Z,6.85
2019-05-19T07:10:09.523Z,6.75
2019-05-19T07:12:37.760Z,5.85
2019-05-19T07:15:06.595Z,6.53
2019-05-19T07:17:34.850Z,6.60
2019-05-19T07:20:04.276Z,6.47
2019-05-19T07:22:37.181Z,6.05
2019-05-19T07:25:02.504Z,6.67
2019-05-19T07:27:30.750Z,6.58
2019-05-19T07:29:59.021Z,7.20
2019-05-19T07:32:27.350Z,7.60
2019-05-19T07:34:55.613Z,6.37
2019-05-19T07:37:23.848Z,6.25
2019-05-19T07:39:53.185Z,6.25
2019-05-19T07:42:22.791Z,6.15
2019-05-19T07:44:51.400Z,6.05
2019-05-19T07:47:19.792Z,6.92
2019-05-19T07:49:48.253Z,6.85
2019-05-19T07:52:16.713Z,6.97
2019-05-19T07:54:45.082Z,6.42
2019-05-19T07:57:13.432Z,7.05
2019-05-19T07:59:41.843Z,7.95
2019-05-19T08:02:10.440Z,7.40
2019-05-19T08:04:39.701Z,7.72
2019-05-19T08:07:08.248Z,7.80
2019-05-19T08:09:36.767Z,8.45
2019-05-19T08:12:05.164Z,8.20
2019-05-19T08:14:38.821Z,7.62
2019-05-19T08:17:07.653Z,9.38
2019-05-19T08:19:37.119Z,8.93
2019-05-19T08:22:05.468Z,10.03
2019-05-19T08:24:36.048Z,9.70
2019-05-19T08:27:05.003Z,10.90
2019-05-19T08:29:33.610Z,10.63
2019-05-19T08:32:05.491Z,11.20
2019-05-19T08:34:45.180Z,11.20
2019-05-19T08:37:14.584Z,12.85
2019-05-19T08:39:43.561Z,13.35
2019-05-19T08:42:12.294Z,12.40
2019-05-19T08:44:40.604Z,12.73
2019-05-19T08:47:08.953Z,13.22
2019-05-19T08:49:37.271Z,12.90
2019-05-19T08:52:05.639Z,12.03
2019-05-19T08:54:37.248Z,13.05
2019-05-19T08:57:06.416Z,12.90
2019-05-19T08:59:34.782Z,14.68
2019-05-19T09:02:03.220Z,13.28
2019-05-19T09:04:31.646Z,13.05
2019-05-19T09:07:01.101Z,12.37
2019-05-19T09:09:41.140Z,12.95
2019-05-19T09:12:42.672Z,12.60
2019-05-19T09:15:16.193Z,13.25
2019-05-19T09:17:53.994Z,13.68
2019-05-19T09:23:19.375Z,12.18
2019-05-19T09:25:51.848Z,13.40
2019-05-19T09:28:26.774Z,13.15
2019-05-19T09:30:58.004Z,13.22
2019-05-19T09:33:30.976Z,12.80
2019-05-19T09:35:59.286Z,13.45
2019-05-19T09:38:34.749Z,13.65
2019-05-19T09:41:03.661Z,13.05
2019-05-19T09:43:36.578Z,12.47
2019-05-19T09:46:13.896Z,13.08
2019-05-19T09:48:42.064Z,12.18
2019-05-19T09:51:12.146Z,11.10
2019-05-19T09:53:40.726Z,13.68
2019-05-19T09:56:09.542Z,13.35
2019-05-19T09:58:39.972Z,12.68
2019-05-19T10:01:08.201Z,12.15
2019-05-19T10:03:36.456Z,12.85
2019-05-19T10:06:04.736Z,13.40
2019-05-19T10:08:34.736Z,13.50
2019-05-19T10:11:22.759Z,13.45
2019-05-19T10:13:51.144Z,11.30
2019-05-19T10:16:19.397Z,8.48
2019-05-19T10:18:47.636Z,8.58
2019-05-19T10:21:15.894Z,6.80
2019-05-19T10:23:44.144Z,12.73
2019-05-19T10:26:12.415Z,11.70
2019-05-19T10:28:40.662Z,11.65
2019-05-19T10:31:08.921Z,11.63
2019-05-19T10:33:37.168Z,11.48
2019-05-19T10:36:05.432Z,11.48
2019-05-19T10:38:33.689Z,11.60
2019-05-19T10:41:01.989Z,12.15
2019-05-19T10:43:30.236Z,11.65
2019-05-19T10:46:00.145Z,11.30
2019-05-19T10:48:28.465Z,11.93
2019-05-19T10:50:56.714Z,11.97
2019-05-19T10:53:24.971Z,11.05
2019-05-19T10:55:53.225Z,10.90
2019-05-19T10:58:21.488Z,10.63
2019-05-19T11:00:49.737Z,10.72
2019-05-19T11:03:17.999Z,10.25
2019-05-19T11:05:46.249Z,10.03
2019-05-19T11:08:14.512Z,9.95
2019-05-19T11:10:42.775Z,9.15
2019-05-19T11:13:11.089Z,9.45
2019-05-19T11:15:39.360Z,7.25
2019-05-19T11:18:07.617Z,9.20
2019-05-19T11:20:35.969Z,9.05
2019-05-19T11:23:04.231Z,9.08
2019-05-19T11:25:34.357Z,9.53
2019-05-19T11:28:02.552Z,8.00
2019-05-19T11:30:30.811Z,8.60
2019-05-19T11:32:59.144Z,8.28
2019-05-19T11:35:27.387Z,8.33
2019-05-19T11:37:55.644Z,8.78
2019-05-19T11:40:23.886Z,9.53
2019-05-19T11:42:52.144Z,9.50
2019-05-19T11:45:20.398Z,9.48
2019-05-19T11:47:48.644Z,9.08
2019-05-19T11:50:16.977Z,9.83
2019-05-19T11:52:45.245Z,9.85
2019-05-19T11:55:13.566Z,9.58
2019-05-19T11:57:41.824Z,10.05
2019-05-19T12:00:10.085Z,9.83
2019-05-19T12:02:38.334Z,11.30
2019-05-19T12:05:06.588Z,9.88
2019-05-19T12:07:34.912Z,10.23
2019-05-19T12:10:03.536Z,10.63
2019-05-19T12:12:31.788Z,9.70
2019-05-19T12:15:00.041Z,9.33
2019-05-19T12:17:28.293Z,9.10
2019-05-19T12:19:56.544Z,10.15
2019-05-19T12:22:24.803Z,9.63
2019-05-19T12:24:53.060Z,9.40
2019-05-19T12:27:21.321Z,10.43
2019-05-19T12:29:49.566Z,10.72
2019-05-19T12:32:17.822Z,9.48
2019-05-19T12:34:46.065Z,10.00
2019-05-19T12:37:14.324Z,10.25
2019-05-19T12:39:42.575Z,9.68
2019-05-19T12:42:10.817Z,9.70
2019-05-19T12:44:39.079Z,9.03
2019-05-19T12:47:07.320Z,8.63
2019-05-19T12:49:35.585Z,9.80
2019-05-19T12:52:03.871Z,9.68
2019-05-19T12:54:32.174Z,9.50
2019-05-19T12:57:00.421Z,8.20
2019-05-19T12:59:28.689Z,9.03
2019-05-19T13:01:56.937Z,8.83
2019-05-19T13:04:25.196Z,8.60
2019-05-19T13:06:53.451Z,8.88
2019-05-19T13:09:21.696Z,9.40
2019-05-19T13:11:50.023Z,9.55
2019-05-19T13:14:18.288Z,8.68
2019-05-19T13:16:46.532Z,8.48
2019-05-19T13:19:14.792Z,9.10
2019-05-19T13:21:43.037Z,8.65
2019-05-19T13:24:11.301Z,9.28
2019-05-19T13:26:54.165Z,8.93
2019-05-19T13:29:09.571Z,8.58
2019-05-19T13:31:37.844Z,9.18
2019-05-19T13:34:06.117Z,8.68
2019-05-19T13:36:34.365Z,8.98
2019-05-19T13:39:02.624Z,9.50
2019-05-19T13:41:30.878Z,9.60
2019-05-19T13:43:59.733Z,9.13
2019-05-19T13:46:28.239Z,8.75
2019-05-19T13:48:56.488Z,9.05
2019-05-19T13:51:24.738Z,9.55
2019-05-19T13:53:53.282Z,9.38
2019-05-19T13:56:21.530Z,8.65
2019-05-19T13:58:49.801Z,8.75
2019-05-19T14:01:28.074Z,8.05
2019-05-19T14:03:48.085Z,8.58
2019-05-19T14:06:16.334Z,8.48
2019-05-19T14:08:44.584Z,9.30
2019-05-19T14:11:12.848Z,9.03
2019-05-19T14:13:41.118Z,9.30
2019-05-19T14:16:09.348Z,9.45
2019-05-19T14:18:37.686Z,9.30
2019-05-19T14:21:05.933Z,8.65
2019-05-19T14:23:34.189Z,8.23
2019-05-19T14:26:02.441Z,9.05
2019-05-19T14:28:30.696Z,8.53
2019-05-19T14:30:58.948Z,8.83
2019-05-19T14:33:27.206Z,8.70
2019-05-19T14:35:55.444Z,9.00
2019-05-19T14:38:23.705Z,9.00
2019-05-19T14:40:51.953Z,8.75
2019-05-19T14:43:21.936Z,9.55
2019-05-19T14:45:50.195Z,9.28
2019-05-19T14:48:18.440Z,10.00
2019-05-19T14:50:46.700Z,9.68
2019-05-19T14:53:14.953Z,10.30
2019-05-19T14:55:43.217Z,9.73
2019-05-19T14:58:11.464Z,10.48
2019-05-19T15:00:39.720Z,10.08
2019-05-19T15:03:08.094Z,9.98
2019-05-19T15:05:36.417Z,9.08
2019-05-19T15:08:04.653Z,9.33
2019-05-19T15:10:32.916Z,9.60
2019-05-19T15:13:01.168Z,10.18
2019-05-19T15:15:29.429Z,9.88
2019-05-19T15:17:57.699Z,9.78
2019-05-19T15:20:26.041Z,10.40
2019-05-19T15:22:54.287Z,9.48
2019-05-19T15:25:22.540Z,10.08
2019-05-19T15:27:59.785Z,10.53
2019-05-19T15:30:20.777Z,10.20
2019-05-19T15:32:49.095Z,10.53
2019-05-19T15:35:17.377Z,10.43
2019-05-19T15:37:45.613Z,9.38
2019-05-19T15:40:13.868Z,10.32
2019-05-19T15:42:42.126Z,10.98
2019-05-19T15:45:10.380Z,8.90
2019-05-19T15:47:38.629Z,9.85
2019-05-19T15:50:07.337Z,10.05
2019-05-19T15:52:35.586Z,10.05
2019-05-19T15:55:04.984Z,10.63
2019-05-19T15:57:33.320Z,10.53
2019-05-19T16:00:01.877Z,10.45
2019-05-19T16:02:30.541Z,10.23
2019-05-19T16:04:58.806Z,9.03
2019-05-19T16:07:27.060Z,8.35
2019-05-19T16:09:55.320Z,8.75
2019-05-19T16:12:23.652Z,8.45
2019-05-19T16:14:51.909Z,8.10
2019-05-19T16:17:20.170Z,8.48
2019-05-19T16:19:48.497Z,7.78
2019-05-19T16:22:16.745Z,8.05
2019-05-19T16:24:45.746Z,8.28
2019-05-19T16:27:13.993Z,8.70
2019-05-19T16:29:42.251Z,8.63
2019-05-19T16:32:10.504Z,8.43
2019-05-19T16:34:38.768Z,9.33
2019-05-19T16:37:07.010Z,9.35
2019-05-19T16:39:35.261Z,8.93
2019-05-19T16:42:03.515Z,9.23
2019-05-19T16:44:31.766Z,9.10
2019-05-19T16:47:00.009Z,9.18
2019-05-19T16:49:28.264Z,10.78
2019-05-19T16:51:56.517Z,8.70
2019-05-19T16:54:26.405Z,9.55
2019-05-19T16:56:54.662Z,8.40
2019-05-19T16:59:22.906Z,8.85
2019-05-19T17:01:51.292Z,7.92
2019-05-19T17:04:19.599Z,8.48
2019-05-19T17:06:47.853Z,8.25
2019-05-19T17:09:16.111Z,8.50
2019-05-19T17:11:44.361Z,7.95
2019-05-19T17:14:12.604Z,8.45
2019-05-19T17:16:40.858Z,9.00
2019-05-19T17:19:09.106Z,8.55
2019-05-19T17:21:37.368Z,8.83
2019-05-19T17:24:05.621Z,8.55
2019-05-19T17:26:33.888Z,9.63
2019-05-19T17:29:02.132Z,8.85
2019-05-19T17:31:30.414Z,9.33
2019-05-19T17:33:58.717Z,9.68
2019-05-19T17:36:27.553Z,8.60
2019-05-19T17:38:56.105Z,9.50
2019-05-19T17:41:24.365Z,9.95
2019-05-19T17:43:52.608Z,9.40
2019-05-19T17:46:20.899Z,10.05
2019-05-19T17:48:49.136Z,9.95
2019-05-19T17:51:17.405Z,10.85
2019-05-19T17:53:45.655Z,10.55
2019-05-19T17:56:13.917Z,11.70
2019-05-19T17:58:42.164Z,11.30
2019-05-19T18:01:10.426Z,11.70
2019-05-19T18:03:38.752Z,10.18
2019-05-19T18:06:07.101Z,10.35
2019-05-19T18:08:35.348Z,11.40
2019-05-19T18:11:03.609Z,10.98
2019-05-19T18:13:31.913Z,10.32
2019-05-19T18:16:00.172Z,10.72
2019-05-19T18:18:28.426Z,10.63
2019-05-19T18:20:56.691Z,9.45
2019-05-19T18:23:24.986Z,12.93
2019-05-19T18:25:53.318Z,15.75
2019-05-19T18:28:21.557Z,12.50
2019-05-19T18:30:50.191Z,10.63
2019-05-19T18:33:18.448Z,11.22
2019-05-19T18:35:46.734Z,14.07
2019-05-19T18:38:14.983Z,13.18
2019-05-19T18:40:43.256Z,15.48
2019-05-19T18:43:11.629Z,11.15
2019-05-19T18:45:42.452Z,11.33
2019-05-19T18:48:10.730Z,11.05
2019-05-19T18:50:39.013Z,12.40
2019-05-19T18:53:07.314Z,12.15
2019-05-19T18:55:35.713Z,15.75
2019-05-19T18:58:03.999Z,34.00
2019-05-19T19:00:34.790Z,26.77
2019-05-19T19:03:03.535Z,19.85
2019-05-19T19:05:31.814Z,15.58
2019-05-19T19:08:00.135Z,10.70
2019-05-19T19:10:28.407Z,10.13
2019-05-19T19:12:56.669Z,10.93
2019-05-19T19:15:24.925Z,11.25
2019-05-19T19:17:53.189Z,11.03
2019-05-19T19:20:21.441Z,12.00
2019-05-19T19:22:49.704Z,11.73
2019-05-19T19:25:18.057Z,9.08
2019-05-19T19:27:46.312Z,9.90
2019-05-19T19:30:14.632Z,12.10
2019-05-19T19:32:42.899Z,10.28
2019-05-19T19:35:11.153Z,11.03
2019-05-19T19:37:39.432Z,11.45
2019-05-19T19:40:07.673Z,10.85
2019-05-19T19:42:35.946Z,10.80
2019-05-19T19:45:05.033Z,11.00
2019-05-19T19:47:33.308Z,10.80
2019-05-19T19:50:01.550Z,11.57
2019-05-19T19:52:29.820Z,11.15
2019-05-19T19:54:58.090Z,11.33
2019-05-19T19:57:26.345Z,11.38
2019-05-19T19:59:54.597Z,10.82
2019-05-19T20:02:22.864Z,10.53
2019-05-19T20:04:51.121Z,9.63
2019-05-19T20:07:19.398Z,10.20
2019-05-19T20:09:47.666Z,11.33
2019-05-19T20:12:15.917Z,11.70
2019-05-19T20:14:44.269Z,10.68
2019-05-19T20:17:12.538Z,11.97
2019-05-19T20:19:40.785Z,10.48
2019-05-19T20:22:09.059Z,10.40
2019-05-19T20:24:37.329Z,10.95
2019-05-19T20:27:05.614Z,11.75
2019-05-19T20:29:33.857Z,11.75
2019-05-19T20:32:02.140Z,11.08
2019-05-19T20:34:30.390Z,10.90
2019-05-19T20:36:58.680Z,10.43
2019-05-19T20:39:26.933Z,10.48
2019-05-19T20:41:55.185Z,9.73
2019-05-19T20:44:23.461Z,10.32
2019-05-19T20:46:51.745Z,10.18
2019-05-19T20:49:20.063Z,11.03
2019-05-19T20:51:48.309Z,10.45
2019-05-19T20:54:16.573Z,11.08
2019-05-19T20:56:44.904Z,11.15
2019-05-19T20:59:13.165Z,11.43
2019-05-19T21:01:41.443Z,12.05
2019-05-19T21:04:09.761Z,11.80
2019-05-19T21:06:38.008Z,11.50
2019-05-19T21:09:06.277Z,11.25
2019-05-19T21:11:34.600Z,11.08
2019-05-19T21:14:02.864Z,11.93
2019-05-19T21:16:31.115Z,10.78
2019-05-19T21:18:59.373Z,10.65
2019-05-19T21:21:27.625Z,10.65
2019-05-19T21:23:55.888Z,10.60
2019-05-19T21:26:24.163Z,10.23
2019-05-19T21:28:52.427Z,10.38
2019-05-19T21:31:20.672Z,10.72
2019-05-19T21:33:48.933Z,10.68
2019-05-19T21:36:17.187Z,10.40
2019-05-19T21:38:45.451Z,10.55
2019-05-19T21:41:13.701Z,9.58
2019-05-19T21:43:41.960Z,9.90
2019-05-19T21:46:10.222Z,9.63
2019-05-19T21:48:38.549Z,10.00
2019-05-19T21:51:06.821Z,10.08
2019-05-19T21:53:35.086Z,8.70
2019-05-19T21:56:03.343Z,8.30
2019-05-19T21:58:31.605Z,8.33
2019-05-19T22:00:59.865Z,8.18
2019-05-19T22:03:28.143Z,7.30
2019-05-19T22:05:56.452Z,7.92
2019-05-19T22:08:24.731Z,7.87
2019-05-19T22:10:52.973Z,7.62
2019-05-19T22:13:21.248Z,8.28
2019-05-19T22:15:49.510Z,7.45
2019-05-19T22:18:17.763Z,7.67
2019-05-19T22:20:46.050Z,7.37
2019-05-19T22:23:14.365Z,7.80
2019-05-19T22:25:42.626Z,7.87
2019-05-19T22:28:10.880Z,7.55
2019-05-19T22:30:39.133Z,8.55
2019-05-19T22:33:07.386Z,8.95
2019-05-19T22:35:35.654Z,10.00
2019-05-19T22:38:03.896Z,9.03
2019-05-19T22:40:32.165Z,10.30
2019-05-19T22:43:00.412Z,9.78
2019-05-19T22:45:28.674Z,9.73
2019-05-19T22:47:56.930Z,11.00
2019-05-19T22:50:25.193Z,11.00
2019-05-19T22:52:53.451Z,10.38
2019-05-19T22:55:21.701Z,9.75
2019-05-19T22:57:49.957Z,10.00
2019-05-19T23:00:19.833Z,10.08
2019-05-19T23:02:48.085Z,9.20
2019-05-19T23:05:16.344Z,9.78
2019-05-19T23:07:44.584Z,8.85
2019-05-19T23:10:12.856Z,9.15
2019-05-19T23:12:41.181Z,10.00
2019-05-19T23:15:09.438Z,9.30
2019-05-19T23:17:37.684Z,11.75
2019-05-19T23:20:06.037Z,11.00
2019-05-19T23:22:34.277Z,11.18
2019-05-19T23:25:02.541Z,10.93
2019-05-19T23:27:30.797Z,10.70
2019-05-19T23:29:59.057Z,10.65
2019-05-19T23:32:27.314Z,12.70
2019-05-19T23:34:55.573Z,11.43
2019-05-19T23:37:23.827Z,11.50
2019-05-19T23:39:54.127Z,10.93
2019-05-19T23:42:22.060Z,11.18
2019-05-19T23:44:50.329Z,11.00
2019-05-19T23:47:18.583Z,11.00
2019-05-19T23:49:46.836Z,11.60
2019-05-19T23:52:15.093Z,12.35
2019-05-19T23:54:43.356Z,11.88
2019-05-19T23:57:11.610Z,12.35
2019-05-19T23:59:39.877Z,12.43
